createdAt,value
2023-04-15T00:00:12.426Z,19.70
2023-04-15T00:03:07.506Z,19.80
2023-04-15T00:06:02.702Z,19.70
2023-04-15T00:08:57.037Z,19.70
2023-04-15T00:11:52.723Z,19.70
2023-04-15T00:14:46.914Z,19.60
2023-04-15T00:17:41.196Z,19.70
2023-04-15T00:20:35.653Z,19.70
2023-04-15T00:23:30.039Z,19.70
2023-04-15T00:26:24.217Z,19.80
2023-04-15T00:29:18.417Z,19.90
2023-04-15T00:32:12.594Z,19.90
2023-04-15T00:35:07.096Z,20.00
2023-04-15T00:38:01.812Z,20.00
2023-04-15T00:40:56.416Z,20.10
2023-04-15T00:43:50.593Z,20.10
2023-04-15T00:46:46.568Z,20.20
2023-04-15T00:49:40.738Z,20.20
2023-04-15T00:52:35.949Z,20.20
2023-04-15T00:55:30.254Z,20.30
2023-04-15T00:58:24.902Z,20.30
2023-04-15T01:01:23.045Z,20.30
2023-04-15T01:04:18.286Z,20.30
2023-04-15T01:07:12.686Z,20.30
2023-04-15T01:10:07.296Z,20.30
2023-04-15T01:13:01.456Z,20.20
2023-04-15T01:15:58.188Z,20.20
2023-04-15T01:18:53.348Z,20.20
2023-04-15T01:21:48.196Z,20.10
2023-04-15T01:24:43.009Z,20.10
2023-04-15T01:27:38.319Z,20.10
2023-04-15T01:30:36.846Z,20.10
2023-04-15T01:33:31.026Z,20.10
2023-04-15T01:36:25.137Z,20.10
2023-04-15T01:39:19.369Z,20.10
2023-04-15T01:42:13.533Z,20.10
2023-04-15T01:45:08.356Z,20.20
2023-04-15T01:48:02.544Z,20.20
2023-04-15T01:50:59.298Z,20.10
2023-04-15T01:53:53.631Z,20.10
2023-04-15T01:56:48.034Z,20.10
2023-04-15T01:59:42.360Z,20.10
2023-04-15T02:02:37.192Z,20.20
2023-04-15T02:05:31.673Z,20.10
2023-04-15T02:08:25.875Z,20.20
2023-04-15T02:11:20.940Z,20.20
2023-04-15T02:14:15.624Z,20.20
2023-04-15T02:17:09.955Z,20.20
2023-04-15T02:20:05.977Z,20.20
2023-04-15T02:23:00.264Z,20.30
2023-04-15T02:25:54.516Z,20.40
2023-04-15T02:28:50.056Z,20.40
2023-04-15T02:31:44.992Z,20.40
2023-04-15T02:34:42.442Z,20.50
2023-04-15T02:37:44.463Z,20.50
2023-04-15T02:40:39.004Z,20.60
2023-04-15T02:43:33.229Z,20.60
2023-04-15T02:46:28.654Z,20.60
2023-04-15T02:49:26.149Z,20.60
2023-04-15T02:52:20.324Z,20.60
2023-04-15T02:55:14.852Z,20.60
2023-04-15T02:58:09.322Z,20.60
2023-04-15T03:01:03.833Z,20.60
2023-04-15T03:03:58.117Z,20.70
2023-04-15T03:06:52.631Z,20.60
2023-04-15T03:09:48.988Z,20.60
2023-04-15T03:12:43.225Z,20.70
2023-04-15T03:15:37.641Z,20.70
2023-04-15T03:18:31.875Z,20.70
2023-04-15T03:21:26.103Z,20.70
2023-04-15T03:24:20.437Z,20.80
2023-04-15T03:27:14.996Z,20.80
2023-04-15T03:30:10.137Z,20.90
2023-04-15T03:33:04.345Z,20.90
2023-04-15T03:35:58.704Z,21.00
2023-04-15T03:38:52.938Z,21.10
2023-04-15T03:41:47.180Z,21.00
2023-04-15T03:44:41.290Z,21.20
2023-04-15T03:47:35.682Z,21.30
2023-04-15T03:50:29.967Z,21.40
2023-04-15T03:53:24.441Z,21.50
2023-04-15T03:56:18.631Z,21.50
2023-04-15T03:59:12.835Z,21.50
2023-04-15T04:02:07.052Z,21.50
2023-04-15T04:05:01.317Z,21.60
2023-04-15T04:07:55.518Z,21.80
2023-04-15T04:10:49.991Z,21.80
2023-04-15T04:13:44.193Z,21.90
2023-04-15T04:16:38.381Z,21.90
2023-04-15T04:19:32.631Z,21.90
2023-04-15T04:22:26.892Z,21.90
2023-04-15T04:25:21.110Z,21.80
2023-04-15T04:28:15.292Z,21.90
2023-04-15T04:31:10.167Z,22.00
2023-04-15T04:34:04.336Z,22.10
2023-04-15T04:36:58.662Z,22.20
2023-04-15T04:39:52.905Z,22.20
2023-04-15T04:42:47.322Z,22.20
2023-04-15T04:45:41.499Z,22.20
2023-04-15T04:48:35.755Z,22.30
2023-04-15T04:51:29.918Z,22.30
2023-04-15T04:54:24.918Z,22.30
2023-04-15T04:57:19.007Z,22.30
2023-04-15T05:00:13.769Z,22.30
2023-04-15T05:03:08.360Z,22.30
2023-04-15T05:06:04.321Z,22.30
2023-04-15T05:08:58.655Z,22.40
2023-04-15T05:11:52.856Z,22.50
2023-04-15T05:14:47.972Z,22.60
2023-04-15T05:17:42.164Z,22.50
2023-04-15T05:20:36.388Z,22.50
2023-04-15T05:23:30.622Z,22.30
2023-04-15T05:26:25.515Z,22.20
2023-04-15T05:29:19.712Z,22.10
2023-04-15T05:32:13.816Z,22.00
2023-04-15T05:35:09.247Z,21.90
2023-04-15T05:38:03.350Z,21.80
2023-04-15T05:40:57.797Z,21.80
2023-04-15T05:43:51.894Z,21.80
2023-04-15T05:46:46.016Z,21.80
2023-04-15T05:49:40.159Z,21.70
2023-04-15T05:52:34.518Z,21.60
2023-04-15T05:55:28.671Z,21.60
2023-04-15T05:58:22.781Z,21.50
2023-04-15T06:01:17.222Z,21.50
2023-04-15T06:04:11.449Z,21.40
2023-04-15T06:07:05.672Z,21.40
2023-04-15T06:09:59.821Z,21.40
2023-04-15T06:12:57.896Z,21.30
2023-04-15T06:15:52.096Z,21.30
2023-04-15T06:18:46.504Z,21.30
2023-04-15T06:21:40.779Z,21.30
2023-04-15T06:24:35.003Z,21.30
2023-04-15T06:27:29.196Z,21.30
2023-04-15T06:30:24.481Z,21.20
2023-04-15T06:33:18.848Z,21.20
2023-04-15T06:36:13.139Z,21.20
2023-04-15T06:39:07.243Z,21.30
2023-04-15T06:42:01.443Z,21.30
2023-04-15T06:44:55.638Z,21.30
2023-04-15T06:47:49.851Z,21.20
2023-04-15T06:50:44.096Z,21.20
2023-04-15T06:53:42.199Z,21.20
2023-04-15T06:56:36.451Z,21.10
2023-04-15T06:59:30.636Z,20.90
2023-04-15T07:02:25.102Z,20.90
2023-04-15T07:05:20.269Z,20.80
2023-04-15T07:08:15.290Z,20.70
2023-04-15T07:11:09.892Z,20.60
2023-04-15T07:14:04.113Z,20.60
2023-04-15T07:16:58.777Z,20.60
2023-04-15T07:19:52.971Z,20.60
2023-04-15T07:22:47.108Z,20.50
2023-04-15T07:25:41.712Z,20.40
2023-04-15T07:28:35.899Z,20.40
2023-04-15T07:31:30.264Z,20.40
2023-04-15T07:34:24.699Z,20.40
2023-04-15T07:37:18.864Z,20.30
2023-04-15T07:40:13.427Z,20.30
2023-04-15T07:43:07.926Z,20.20
2023-04-15T07:46:02.077Z,20.20
2023-04-15T07:48:56.628Z,20.30
2023-04-15T07:51:51.222Z,20.20
2023-04-15T07:54:45.425Z,19.90
2023-04-15T07:57:39.690Z,19.70
2023-04-15T08:00:33.953Z,19.50
2023-04-15T08:03:28.935Z,19.40
2023-04-15T08:06:25.212Z,19.30
2023-04-15T08:09:19.504Z,19.30
2023-04-15T08:12:14.695Z,19.30
2023-04-15T08:15:09.473Z,19.20
2023-04-15T08:18:03.632Z,19.10
2023-04-15T08:20:57.796Z,19.10
2023-04-15T08:23:54.567Z,19.10
2023-04-15T08:26:48.970Z,19.00
2023-04-15T08:29:43.085Z,18.90
2023-04-15T08:32:37.201Z,18.90
2023-04-15T08:35:31.802Z,18.80
2023-04-15T08:38:26.137Z,18.80
2023-04-15T08:41:26.475Z,18.70
2023-04-15T08:44:21.351Z,18.70
2023-04-15T08:47:17.879Z,18.80
2023-04-15T08:50:12.879Z,18.70
2023-04-15T08:53:07.628Z,18.60
2023-04-15T08:56:07.350Z,18.50
2023-04-15T08:59:04.606Z,18.50
2023-04-15T09:01:59.491Z,18.40
2023-04-15T09:04:53.934Z,18.20
2023-04-15T09:07:48.035Z,18.10
2023-04-15T09:10:42.305Z,18.00
2023-04-15T09:13:36.484Z,17.90
2023-04-15T09:16:30.719Z,17.80
2023-04-15T09:19:26.383Z,17.80
2023-04-15T09:22:23.554Z,17.80
2023-04-15T09:25:17.624Z,17.70
2023-04-15T09:28:12.686Z,17.70
2023-04-15T09:31:06.896Z,17.70
2023-04-15T09:34:01.577Z,17.70
2023-04-15T09:36:58.121Z,17.70
2023-04-15T09:39:54.132Z,17.70
2023-04-15T09:42:58.142Z,17.70
2023-04-15T09:45:54.392Z,17.70
2023-04-15T09:48:48.614Z,17.70
2023-04-15T09:51:51.194Z,17.70
2023-04-15T09:54:57.710Z,17.70
2023-04-15T09:57:51.920Z,17.70
2023-04-15T10:00:48.554Z,17.70
2023-04-15T10:03:43.952Z,17.70
2023-04-15T10:06:38.343Z,17.60
2023-04-15T10:09:34.813Z,17.20
2023-04-15T10:12:30.190Z,16.80
2023-04-15T10:15:25.100Z,16.60
2023-04-15T10:18:22.253Z,16.50
2023-04-15T10:21:19.730Z,16.50
2023-04-15T10:24:14.572Z,16.50
2023-04-15T10:27:09.750Z,16.40
2023-04-15T10:30:04.986Z,16.40
2023-04-15T10:32:59.666Z,16.40
2023-04-15T10:35:56.164Z,16.40
2023-04-15T10:38:50.398Z,16.50
2023-04-15T10:41:44.620Z,16.50
2023-04-15T10:44:42.798Z,16.50
2023-04-15T10:47:37.017Z,16.50
2023-04-15T10:50:33.827Z,16.50
2023-04-15T10:53:32.264Z,16.50
2023-04-15T10:56:26.701Z,16.50
2023-04-15T10:59:22.321Z,16.60
2023-04-15T11:02:17.098Z,16.70
2023-04-15T11:05:12.714Z,16.70
2023-04-15T11:08:07.024Z,16.70
2023-04-15T11:11:01.264Z,16.80
2023-04-15T11:13:55.419Z,16.80
2023-04-15T11:16:49.870Z,16.80
2023-04-15T11:19:45.073Z,16.80
2023-04-15T11:22:39.338Z,16.90
2023-04-15T11:25:35.228Z,16.90
2023-04-15T11:28:31.717Z,16.90
2023-04-15T11:31:29.941Z,16.90
2023-04-15T11:34:27.586Z,16.80
2023-04-15T11:37:30.853Z,16.70
2023-04-15T11:40:26.920Z,16.80
2023-04-15T11:43:23.957Z,16.80
2023-04-15T11:46:18.347Z,16.80
2023-04-15T11:49:12.707Z,16.70
2023-04-15T11:52:13.459Z,16.70
2023-04-15T11:55:10.193Z,16.50
2023-04-15T11:58:18.072Z,16.50
2023-04-15T12:01:12.543Z,16.40
2023-04-15T12:04:17.002Z,16.40
2023-04-15T12:07:11.943Z,16.30
2023-04-15T12:10:06.264Z,16.20
2023-04-15T12:13:00.536Z,16.20
2023-04-15T12:15:57.202Z,16.30
2023-04-15T12:18:59.076Z,16.20
2023-04-15T12:21:54.134Z,16.20
2023-04-15T12:24:49.951Z,16.20
2023-04-15T12:27:52.205Z,16.20
2023-04-15T12:30:53.792Z,16.30
2023-04-15T12:33:51.090Z,16.20
2023-04-15T12:36:45.220Z,16.20
2023-04-15T12:39:41.763Z,16.20
2023-04-15T12:42:36.697Z,16.20
2023-04-15T12:45:30.845Z,16.30
2023-04-15T12:48:25.403Z,16.30
2023-04-15T12:51:19.529Z,16.40
2023-04-15T12:54:13.783Z,16.50
2023-04-15T12:57:08.452Z,16.50
2023-04-15T13:00:02.765Z,16.50
2023-04-15T13:02:57.147Z,16.40
2023-04-15T13:05:51.403Z,16.40
2023-04-15T13:08:57.371Z,16.30
2023-04-15T13:11:53.061Z,16.30
2023-04-15T13:14:47.258Z,16.30
2023-04-15T13:17:41.775Z,16.30
2023-04-15T13:20:35.923Z,16.20
2023-04-15T13:23:30.871Z,16.20
2023-04-15T13:26:24.971Z,16.10
2023-04-15T13:29:19.121Z,16.10
2023-04-15T13:32:13.212Z,16.00
2023-04-15T13:35:07.977Z,16.00
2023-04-15T13:38:02.423Z,16.10
2023-04-15T13:40:56.699Z,16.00
2023-04-15T13:43:50.783Z,16.10
2023-04-15T13:46:44.952Z,16.00
2023-04-15T13:49:39.065Z,16.00
2023-04-15T13:52:33.481Z,16.00
2023-04-15T13:55:28.764Z,16.00
2023-04-15T13:58:22.968Z,16.00
2023-04-15T14:01:17.503Z,15.90
2023-04-15T14:04:11.981Z,15.90
2023-04-15T14:07:06.566Z,15.80
2023-04-15T14:10:01.676Z,15.80
2023-04-15T14:12:55.792Z,15.60
2023-04-15T14:15:50.072Z,15.60
2023-04-15T14:18:45.861Z,15.70
2023-04-15T14:21:41.051Z,15.80
2023-04-15T14:24:35.205Z,15.70
2023-04-15T14:27:30.074Z,15.70
2023-04-15T14:30:24.223Z,15.80
2023-04-15T14:33:18.488Z,15.80
2023-04-15T14:36:13.019Z,15.80
2023-04-15T14:39:07.364Z,15.80
2023-04-15T14:42:01.667Z,15.80
2023-04-15T14:44:55.821Z,15.80
2023-04-15T14:47:49.990Z,15.80
2023-04-15T14:50:44.308Z,15.80
2023-04-15T14:53:38.443Z,15.80
2023-04-15T14:56:32.728Z,15.80
2023-04-15T14:59:27.305Z,15.80
2023-04-15T15:02:37.347Z,15.80
2023-04-15T15:05:32.298Z,15.70
2023-04-15T15:08:26.735Z,15.40
2023-04-15T15:11:20.886Z,15.20
2023-04-15T15:14:15.039Z,15.10
2023-04-15T15:17:09.293Z,15.00
2023-04-15T15:20:04.836Z,15.00
2023-04-15T15:22:59.141Z,15.00
2023-04-15T15:25:53.356Z,14.90
2023-04-15T15:28:47.519Z,14.90
2023-04-15T15:31:41.836Z,15.00
2023-04-15T15:34:36.023Z,15.00
2023-04-15T15:37:31.847Z,15.00
2023-04-15T15:40:26.181Z,15.00
2023-04-15T15:43:20.349Z,15.10
2023-04-15T15:46:14.544Z,15.10
2023-04-15T15:49:08.888Z,15.20
2023-04-15T15:52:03.087Z,15.30
2023-04-15T15:54:57.414Z,15.40
2023-04-15T15:57:51.581Z,15.40
2023-04-15T16:00:45.867Z,15.40
2023-04-15T16:03:40.629Z,15.30
2023-04-15T16:06:35.353Z,15.20
2023-04-15T16:09:29.700Z,15.20
2023-04-15T16:12:23.827Z,15.20
2023-04-15T16:15:18.001Z,15.00
2023-04-15T16:18:12.162Z,14.80
2023-04-15T16:21:07.230Z,14.80
2023-04-15T16:24:01.677Z,14.80
2023-04-15T16:26:55.778Z,14.80
2023-04-15T16:29:50.035Z,14.80
2023-04-15T16:32:44.396Z,14.90
2023-04-15T16:35:38.654Z,14.90
2023-04-15T16:38:33.031Z,14.90
2023-04-15T16:41:27.213Z,14.90
2023-04-15T16:44:21.510Z,14.90
2023-04-15T16:47:16.054Z,14.90
2023-04-15T16:50:10.974Z,14.90
2023-04-15T16:53:05.170Z,14.80
2023-04-15T16:55:59.345Z,14.90
2023-04-15T16:58:53.467Z,14.90
2023-04-15T17:01:50.664Z,14.90
2023-04-15T17:04:44.420Z,15.00
2023-04-15T17:07:38.572Z,15.00
2023-04-15T17:10:32.973Z,15.00
2023-04-15T17:13:27.867Z,15.00
2023-04-15T17:16:22.199Z,15.00
2023-04-15T17:19:16.357Z,15.00
2023-04-15T17:22:10.690Z,15.10
2023-04-15T17:25:05.774Z,15.10
2023-04-15T17:27:59.937Z,15.10
2023-04-15T17:30:54.078Z,15.10
2023-04-15T17:34:00.516Z,15.10
2023-04-15T17:37:02.508Z,15.00
2023-04-15T17:39:56.688Z,15.00
2023-04-15T17:42:50.757Z,15.00
2023-04-15T17:45:45.583Z,15.10
2023-04-15T17:48:39.812Z,15.10
2023-04-15T17:51:34.019Z,15.10
2023-04-15T17:54:28.189Z,15.10
2023-04-15T17:57:22.361Z,15.10
2023-04-15T18:00:17.745Z,15.10
2023-04-15T18:03:12.092Z,15.10
2023-04-15T18:06:06.998Z,15.10
2023-04-15T18:09:01.405Z,15.10
2023-04-15T18:11:55.523Z,15.10
2023-04-15T18:14:49.696Z,15.10
2023-04-15T18:17:43.915Z,15.00
2023-04-15T18:20:38.221Z,15.00
2023-04-15T18:23:32.381Z,15.00
2023-04-15T18:26:27.208Z,15.00
2023-04-15T18:29:21.685Z,15.00
2023-04-15T18:32:15.842Z,15.00
2023-04-15T18:35:10.500Z,15.00
2023-04-15T18:38:07.058Z,15.00
2023-04-15T18:41:01.250Z,15.10
2023-04-15T18:43:57.293Z,15.00
2023-04-15T18:46:51.482Z,15.00
2023-04-15T18:49:45.574Z,15.10
2023-04-15T18:52:39.844Z,15.00
2023-04-15T18:55:34.014Z,15.00
2023-04-15T18:58:29.120Z,15.00
2023-04-15T19:01:43.239Z,15.00
2023-04-15T19:04:37.538Z,15.00
2023-04-15T19:07:32.802Z,15.00
2023-04-15T19:10:29.112Z,15.00
2023-04-15T19:13:23.832Z,15.00
2023-04-15T19:16:18.031Z,14.90
2023-04-15T19:19:15.497Z,14.90
2023-04-15T19:22:11.036Z,14.90
2023-04-15T19:25:06.845Z,14.90
2023-04-15T19:28:01.099Z,14.90
2023-04-15T19:30:55.626Z,14.80
2023-04-15T19:33:49.804Z,14.70
2023-04-15T19:36:44.232Z,14.60
2023-04-15T19:39:38.394Z,14.50
2023-04-15T19:42:32.534Z,14.40
2023-04-15T19:45:26.747Z,14.40
2023-04-15T19:48:21.405Z,14.40
2023-04-15T19:51:15.537Z,14.50
2023-04-15T19:54:09.660Z,14.60
2023-04-15T19:57:03.776Z,14.60
2023-04-15T19:59:57.997Z,14.70
2023-04-15T20:02:52.317Z,14.70
2023-04-15T20:05:46.701Z,14.80
2023-04-15T20:08:40.797Z,14.80
2023-04-15T20:12:46.792Z,14.90
2023-04-15T20:14:49.080Z,14.90
2023-04-15T20:17:43.248Z,14.90
2023-04-15T20:20:37.489Z,14.90
2023-04-15T20:23:31.689Z,14.90
2023-04-15T20:26:26.119Z,14.90
2023-04-15T20:29:20.346Z,14.90
2023-04-15T20:32:14.586Z,14.90
2023-04-15T20:35:09.218Z,14.90
2023-04-15T20:38:05.186Z,14.80
2023-04-15T20:40:59.650Z,14.80
2023-04-15T20:43:53.815Z,14.80
2023-04-15T20:46:48.180Z,14.80
2023-04-15T20:49:42.404Z,14.80
2023-04-15T20:52:36.717Z,14.80
2023-04-15T20:55:30.952Z,14.80
2023-04-15T20:58:25.330Z,14.70
2023-04-15T21:01:19.597Z,14.70
2023-04-15T21:04:13.777Z,14.70
2023-04-15T21:07:08.087Z,14.70
2023-04-15T21:10:02.396Z,14.70
2023-04-15T21:12:56.677Z,14.70
2023-04-15T21:15:54.605Z,14.70
2023-04-15T21:18:48.722Z,14.70
2023-04-15T21:21:42.856Z,14.70
2023-04-15T21:24:37.052Z,14.70
2023-04-15T21:27:31.225Z,14.70
2023-04-15T21:30:25.409Z,14.70
2023-04-15T21:33:21.764Z,14.70
2023-04-15T21:36:15.952Z,14.70
2023-04-15T21:39:10.191Z,14.80
2023-04-15T21:42:04.358Z,14.70
2023-04-15T21:44:58.534Z,14.80
2023-04-15T21:47:59.466Z,14.80
2023-04-15T21:51:02.953Z,14.80
2023-04-15T21:53:57.182Z,14.90
2023-04-15T21:56:52.058Z,14.90
2023-04-15T21:59:46.289Z,14.90
2023-04-15T22:02:40.617Z,14.90
2023-04-15T22:05:34.830Z,15.30
2023-04-15T22:08:29.089Z,16.30
2023-04-15T22:11:28.144Z,17.30
2023-04-15T22:14:22.858Z,18.20
2023-04-15T22:17:17.051Z,18.90
2023-04-15T22:20:11.821Z,19.90
2023-04-15T22:23:09.050Z,20.60
2023-04-15T22:26:02.809Z,20.50
2023-04-15T22:28:56.909Z,20.10
2023-04-15T22:31:51.286Z,19.80
2023-04-15T22:34:45.561Z,20.30
2023-04-15T22:37:39.815Z,20.80
2023-04-15T22:40:34.375Z,20.60
2023-04-15T22:43:28.685Z,20.20
2023-04-15T22:46:22.852Z,19.90
2023-04-15T22:49:17.128Z,19.60
2023-04-15T22:52:14.568Z,19.30
2023-04-15T22:55:18.432Z,19.30
2023-04-15T22:58:12.610Z,20.10
2023-04-15T23:01:07.093Z,21.40
2023-04-15T23:04:05.631Z,23.10
2023-04-15T23:07:04.516Z,24.50
2023-04-15T23:09:59.328Z,25.90
2023-04-15T23:12:53.507Z,27.00
2023-04-15T23:15:47.770Z,28.00
2023-04-15T23:18:41.991Z,28.90
2023-04-15T23:21:36.210Z,29.30
2023-04-15T23:24:30.396Z,30.00
2023-04-15T23:27:24.533Z,30.60
2023-04-15T23:30:18.833Z,30.50
2023-04-15T23:33:13.256Z,29.00
2023-04-15T23:36:10.233Z,27.60
2023-04-15T23:39:04.359Z,26.20
2023-04-15T23:41:58.748Z,24.90
2023-04-15T23:44:52.917Z,24.10
2023-04-15T23:47:47.440Z,23.30
2023-04-15T23:50:41.772Z,22.60
2023-04-15T23:53:36.102Z,21.90
2023-04-15T23:56:30.285Z,21.40
2023-04-15T23:59:24.644Z,21.00
